Lower Hutt, New Zealand
Current Conditions -  °F | °C
As of 6:00 PM on Monday 26 Jan 2015 (Local Time) from NZWN Reporting Station
Clear Clear  
Wind Chill: 75°   Ceiling: Unl
Heat Index: 75°   Visibility: 6mi
Dew Point: 54°   Wind: 21mph
Humidity: 47%   Direction: 360°N
Pressure: 29.88"   Gusts: NA
Location:  41.21°S, 174.9°E
Report Text: NZWN 260600Z AUTO 36018KT 9999 NCD 24/12 Q1012 NOSIG
Loading
Personal Weather Stations






























Interactive Weather Map New forecast layout! Learn more

10-Day Weather Forecast

Advertisements
Track Severe Weather on mobile